sensor_id;sensor_type;location;lat;lon;timestamp;temperature;humidity
17849;DHT22;9050;48.746;9.232;2023-02-22T00:01:15;7.20;99.90
17849;DHT22;9050;48.746;9.232;2023-02-22T00:03:59;7.20;99.90
17849;DHT22;9050;48.746;9.232;2023-02-22T00:06:26;7.40;99.90
17849;DHT22;9050;48.746;9.232;2023-02-22T00:08:55;7.40;99.90
17849;DHT22;9050;48.746;9.232;2023-02-22T00:11:24;7.40;99.90
17849;DHT22;9050;48.746;9.232;2023-02-22T00:13:51;7.40;99.90
17849;DHT22;9050;48.746;9.232;2023-02-22T00:16:22;7.30;99.90
17849;DHT22;9050;48.746;9.232;2023-02-22T00:18:50;7.30;99.90
17849;DHT22;9050;48.746;9.232;2023-02-22T00:21:17;7.30;99.90
17849;DHT22;9050;48.746;9.232;2023-02-22T00:23:46;7.30;99.90
17849;DHT22;9050;48.746;9.232;2023-02-22T00:26:14;7.20;99.90
17849;DHT22;9050;48.746;9.232;2023-02-22T00:28:45;7.20;99.90
17849;DHT22;9050;48.746;9.232;2023-02-22T00:31:13;7.10;99.90
17849;DHT22;9050;48.746;9.232;2023-02-22T00:33:40;7.20;99.90
17849;DHT22;9050;48.746;9.232;2023-02-22T00:36:08;7.30;99.90
17849;DHT22;9050;48.746;9.232;2023-02-22T00:38:35;7.30;99.90
17849;DHT22;9050;48.746;9.232;2023-02-22T00:41:03;7.20;99.90
17849;DHT22;9050;48.746;9.232;2023-02-22T00:43:30;7.20;99.90
17849;DHT22;9050;48.746;9.232;2023-02-22T00:45:58;7.10;99.90
17849;DHT22;9050;48.746;9.232;2023-02-22T00:48:25;7.10;99.90
17849;DHT22;9050;48.746;9.232;2023-02-22T00:50:52;7.00;99.90
17849;DHT22;9050;48.746;9.232;2023-02-22T00:53:21;7.00;99.90
17849;DHT22;9050;48.746;9.232;2023-02-22T00:55:48;7.00;99.90
17849;DHT22;9050;48.746;9.232;2023-02-22T00:58:15;6.90;99.90
17849;DHT22;9050;48.746;9.232;2023-02-22T01:00:43;6.90;99.90
17849;DHT22;9050;48.746;9.232;2023-02-22T01:03:14;6.90;99.90
17849;DHT22;9050;48.746;9.232;2023-02-22T01:05:41;6.80;99.90
17849;DHT22;9050;48.746;9.232;2023-02-22T01:08:10;6.70;99.90
17849;DHT22;9050;48.746;9.232;2023-02-22T01:10:38;6.60;99.90
17849;DHT22;9050;48.746;9.232;2023-02-22T01:13:07;6.60;99.90
17849;DHT22;9050;48.746;9.232;2023-02-22T01:15:37;6.50;99.90
17849;DHT22;9050;48.746;9.232;2023-02-22T01:18:05;6.50;99.90
17849;DHT22;9050;48.746;9.232;2023-02-22T01:20:34;6.40;99.90
17849;DHT22;9050;48.746;9.232;2023-02-22T01:23:03;6.50;99.90
17849;DHT22;9050;48.746;9.232;2023-02-22T01:25:31;6.60;99.90
17849;DHT22;9050;48.746;9.232;2023-02-22T01:28:00;6.60;99.90
17849;DHT22;9050;48.746;9.232;2023-02-22T01:30:28;6.70;99.90
17849;DHT22;9050;48.746;9.232;2023-02-22T01:32:57;6.70;99.90
17849;DHT22;9050;48.746;9.232;2023-02-22T01:35:27;6.70;99.90
17849;DHT22;9050;48.746;9.232;2023-02-22T01:37:56;6.70;99.90
17849;DHT22;9050;48.746;9.232;2023-02-22T01:40:25;6.70;99.90
17849;DHT22;9050;48.746;9.232;2023-02-22T01:42:54;6.60;99.90
17849;DHT22;9050;48.746;9.232;2023-02-22T01:45:44;6.60;99.90
17849;DHT22;9050;48.746;9.232;2023-02-22T01:48:17;6.60;99.90
17849;DHT22;9050;48.746;9.232;2023-02-22T01:50:48;6.60;99.90
17849;DHT22;9050;48.746;9.232;2023-02-22T01:53:22;6.50;99.90
17849;DHT22;9050;48.746;9.232;2023-02-22T01:55:50;6.50;99.90
17849;DHT22;9050;48.746;9.232;2023-02-22T01:58:20;6.40;99.90
17849;DHT22;9050;48.746;9.232;2023-02-22T02:00:47;6.30;99.90
17849;DHT22;9050;48.746;9.232;2023-02-22T02:03:17;6.30;99.90
17849;DHT22;9050;48.746;9.232;2023-02-22T02:05:47;6.20;99.90
17849;DHT22;9050;48.746;9.232;2023-02-22T02:08:24;6.20;99.90
17849;DHT22;9050;48.746;9.232;2023-02-22T02:10:54;6.20;99.90
17849;DHT22;9050;48.746;9.232;2023-02-22T02:13:23;6.20;99.90
17849;DHT22;9050;48.746;9.232;2023-02-22T02:15:52;6.20;99.90
17849;DHT22;9050;48.746;9.232;2023-02-22T02:18:19;6.20;99.90
17849;DHT22;9050;48.746;9.232;2023-02-22T02:20:59;6.20;99.90
17849;DHT22;9050;48.746;9.232;2023-02-22T02:23:51;6.20;99.90
17849;DHT22;9050;48.746;9.232;2023-02-22T02:26:50;6.20;99.90
17849;DHT22;9050;48.746;9.232;2023-02-22T02:29:58;6.10;99.90
17849;DHT22;9050;48.746;9.232;2023-02-22T02:32:52;6.00;99.90
17849;DHT22;9050;48.746;9.232;2023-02-22T02:35:28;5.90;99.90
17849;DHT22;9050;48.746;9.232;2023-02-22T02:38:02;5.80;99.90
17849;DHT22;9050;48.746;9.232;2023-02-22T02:40:34;5.70;99.90
17849;DHT22;9050;48.746;9.232;2023-02-22T02:43:06;5.50;99.90
17849;DHT22;9050;48.746;9.232;2023-02-22T02:45:41;5.40;99.90
17849;DHT22;9050;48.746;9.232;2023-02-22T02:48:14;5.20;99.90
17849;DHT22;9050;48.746;9.232;2023-02-22T02:50:44;5.20;99.90
17849;DHT22;9050;48.746;9.232;2023-02-22T02:53:14;5.20;99.90
17849;DHT22;9050;48.746;9.232;2023-02-22T02:55:42;5.10;99.90
17849;DHT22;9050;48.746;9.232;2023-02-22T02:58:17;5.00;99.90
17849;DHT22;9050;48.746;9.232;2023-02-22T03:00:44;4.90;99.90
17849;DHT22;9050;48.746;9.232;2023-02-22T03:03:33;4.90;99.90
17849;DHT22;9050;48.746;9.232;2023-02-22T03:06:33;4.90;99.90
17849;DHT22;9050;48.746;9.232;2023-02-22T03:09:10;4.90;99.90
17849;DHT22;9050;48.746;9.232;2023-02-22T03:11:45;5.00;99.90
17849;DHT22;9050;48.746;9.232;2023-02-22T03:14:21;4.90;99.90
17849;DHT22;9050;48.746;9.232;2023-02-22T03:16:51;4.80;99.90
17849;DHT22;9050;48.746;9.232;2023-02-22T03:19:23;4.70;99.90
17849;DHT22;9050;48.746;9.232;2023-02-22T03:21:56;4.70;99.90
17849;DHT22;9050;48.746;9.232;2023-02-22T03:24:29;4.60;99.90
17849;DHT22;9050;48.746;9.232;2023-02-22T03:27:01;4.70;99.90
17849;DHT22;9050;48.746;9.232;2023-02-22T03:29:37;4.80;99.90
17849;DHT22;9050;48.746;9.232;2023-02-22T03:32:08;4.90;99.90
17849;DHT22;9050;48.746;9.232;2023-02-22T03:34:42;4.90;99.90
17849;DHT22;9050;48.746;9.232;2023-02-22T03:37:13;4.90;99.90
17849;DHT22;9050;48.746;9.232;2023-02-22T03:39:42;4.90;99.90
17849;DHT22;9050;48.746;9.232;2023-02-22T03:42:14;5.00;99.90
17849;DHT22;9050;48.746;9.232;2023-02-22T03:44:44;5.00;99.90
17849;DHT22;9050;48.746;9.232;2023-02-22T03:47:15;5.00;99.90
17849;DHT22;9050;48.746;9.232;2023-02-22T03:49:50;5.00;99.90
17849;DHT22;9050;48.746;9.232;2023-02-22T03:52:18;5.00;99.90
17849;DHT22;9050;48.746;9.232;2023-02-22T03:54:48;5.00;99.90
17849;DHT22;9050;48.746;9.232;2023-02-22T03:57:23;4.90;99.90
17849;DHT22;9050;48.746;9.232;2023-02-22T03:59:51;4.90;99.90
17849;DHT22;9050;48.746;9.232;2023-02-22T04:02:18;4.80;99.90
17849;DHT22;9050;48.746;9.232;2023-02-22T04:04:46;4.80;99.90
17849;DHT22;9050;48.746;9.232;2023-02-22T04:07:13;4.80;99.90
17849;DHT22;9050;48.746;9.232;2023-02-22T04:09:40;4.70;99.90
17849;DHT22;9050;48.746;9.232;2023-02-22T04:12:07;4.70;99.90
17849;DHT22;9050;48.746;9.232;2023-02-22T04:14:34;4.60;99.90
17849;DHT22;9050;48.746;9.232;2023-02-22T04:17:01;4.60;99.90
17849;DHT22;9050;48.746;9.232;2023-02-22T04:19:28;4.70;99.90
17849;DHT22;9050;48.746;9.232;2023-02-22T04:21:56;4.70;99.90
17849;DHT22;9050;48.746;9.232;2023-02-22T04:24:23;4.80;99.90
17849;DHT22;9050;48.746;9.232;2023-02-22T04:26:50;4.70;99.90
17849;DHT22;9050;48.746;9.232;2023-02-22T04:29:17;4.70;99.90
17849;DHT22;9050;48.746;9.232;2023-02-22T04:31:44;4.70;99.90
17849;DHT22;9050;48.746;9.232;2023-02-22T04:34:10;4.70;99.90
17849;DHT22;9050;48.746;9.232;2023-02-22T04:36:38;4.70;99.90
17849;DHT22;9050;48.746;9.232;2023-02-22T04:39:08;4.70;99.90
17849;DHT22;9050;48.746;9.232;2023-02-22T04:41:35;4.70;99.90
17849;DHT22;9050;48.746;9.232;2023-02-22T04:44:01;4.60;99.90
17849;DHT22;9050;48.746;9.232;2023-02-22T04:46:28;4.50;99.90
17849;DHT22;9050;48.746;9.232;2023-02-22T04:48:55;4.40;99.90
17849;DHT22;9050;48.746;9.232;2023-02-22T04:51:23;4.30;99.90
17849;DHT22;9050;48.746;9.232;2023-02-22T04:53:50;4.30;99.90
17849;DHT22;9050;48.746;9.232;2023-02-22T04:56:18;4.30;99.90
17849;DHT22;9050;48.746;9.232;2023-02-22T04:58:45;4.30;99.90
17849;DHT22;9050;48.746;9.232;2023-02-22T05:01:13;4.30;99.90
17849;DHT22;9050;48.746;9.232;2023-02-22T05:03:40;4.20;99.90
17849;DHT22;9050;48.746;9.232;2023-02-22T05:06:08;4.20;99.90
17849;DHT22;9050;48.746;9.232;2023-02-22T05:08:36;4.20;99.90
17849;DHT22;9050;48.746;9.232;2023-02-22T05:11:03;4.20;99.90
17849;DHT22;9050;48.746;9.232;2023-02-22T05:13:32;4.20;99.90
17849;DHT22;9050;48.746;9.232;2023-02-22T05:15:58;4.20;99.90
17849;DHT22;9050;48.746;9.232;2023-02-22T05:18:25;4.10;99.90
17849;DHT22;9050;48.746;9.232;2023-02-22T05:20:52;4.20;99.90
17849;DHT22;9050;48.746;9.232;2023-02-22T05:23:19;4.20;99.90
17849;DHT22;9050;48.746;9.232;2023-02-22T05:25:45;4.20;99.90
17849;DHT22;9050;48.746;9.232;2023-02-22T05:28:14;4.20;99.90
17849;DHT22;9050;48.746;9.232;2023-02-22T05:30:42;4.30;99.90
17849;DHT22;9050;48.746;9.232;2023-02-22T05:33:09;4.30;99.90
17849;DHT22;9050;48.746;9.232;2023-02-22T05:35:36;4.30;99.90
17849;DHT22;9050;48.746;9.232;2023-02-22T05:38:03;4.40;99.90
17849;DHT22;9050;48.746;9.232;2023-02-22T05:40:31;4.40;99.90
17849;DHT22;9050;48.746;9.232;2023-02-22T05:42:58;4.40;99.90
17849;DHT22;9050;48.746;9.232;2023-02-22T05:45:26;4.40;99.90
17849;DHT22;9050;48.746;9.232;2023-02-22T05:47:55;4.40;99.90
17849;DHT22;9050;48.746;9.232;2023-02-22T05:50:22;4.50;99.90
17849;DHT22;9050;48.746;9.232;2023-02-22T05:52:50;4.60;99.90
17849;DHT22;9050;48.746;9.232;2023-02-22T05:55:18;4.60;99.90
17849;DHT22;9050;48.746;9.232;2023-02-22T05:57:46;4.70;99.90
17849;DHT22;9050;48.746;9.232;2023-02-22T06:00:16;4.80;99.90
17849;DHT22;9050;48.746;9.232;2023-02-22T06:02:43;4.80;99.90
17849;DHT22;9050;48.746;9.232;2023-02-22T06:05:11;4.80;99.90
17849;DHT22;9050;48.746;9.232;2023-02-22T06:07:38;4.80;99.90
17849;DHT22;9050;48.746;9.232;2023-02-22T06:10:05;4.80;99.90
17849;DHT22;9050;48.746;9.232;2023-02-22T06:12:32;4.80;99.90
17849;DHT22;9050;48.746;9.232;2023-02-22T06:14:59;4.90;99.90
17849;DHT22;9050;48.746;9.232;2023-02-22T06:17:25;4.80;99.90
17849;DHT22;9050;48.746;9.232;2023-02-22T06:19:52;4.80;99.90
17849;DHT22;9050;48.746;9.232;2023-02-22T06:22:20;4.90;99.90
17849;DHT22;9050;48.746;9.232;2023-02-22T06:24:47;5.00;99.90
17849;DHT22;9050;48.746;9.232;2023-02-22T06:27:14;5.00;99.90
17849;DHT22;9050;48.746;9.232;2023-02-22T06:29:45;5.00;99.90
17849;DHT22;9050;48.746;9.232;2023-02-22T06:32:12;4.90;99.90
17849;DHT22;9050;48.746;9.232;2023-02-22T06:34:39;4.90;99.90
17849;DHT22;9050;48.746;9.232;2023-02-22T06:37:06;4.90;99.90
17849;DHT22;9050;48.746;9.232;2023-02-22T06:39:34;5.00;99.90
17849;DHT22;9050;48.746;9.232;2023-02-22T06:42:01;5.00;99.90
17849;DHT22;9050;48.746;9.232;2023-02-22T06:44:28;5.10;99.90
17849;DHT22;9050;48.746;9.232;2023-02-22T06:46:55;5.10;99.90
17849;DHT22;9050;48.746;9.232;2023-02-22T06:49:24;5.20;99.90
17849;DHT22;9050;48.746;9.232;2023-02-22T06:51:52;5.40;99.90
17849;DHT22;9050;48.746;9.232;2023-02-22T06:54:20;5.50;99.90
17849;DHT22;9050;48.746;9.232;2023-02-22T06:56:48;5.70;99.90
17849;DHT22;9050;48.746;9.232;2023-02-22T06:59:15;5.90;99.90
17849;DHT22;9050;48.746;9.232;2023-02-22T07:01:42;6.30;99.90
17849;DHT22;9050;48.746;9.232;2023-02-22T07:04:09;6.80;99.90
17849;DHT22;9050;48.746;9.232;2023-02-22T07:06:36;7.30;99.90
17849;DHT22;9050;48.746;9.232;2023-02-22T07:09:03;7.80;99.90
17849;DHT22;9050;48.746;9.232;2023-02-22T07:11:30;8.20;99.90
17849;DHT22;9050;48.746;9.232;2023-02-22T07:13:58;8.70;99.90
17849;DHT22;9050;48.746;9.232;2023-02-22T07:16:25;8.80;99.90
17849;DHT22;9050;48.746;9.232;2023-02-22T07:18:52;9.00;99.90
17849;DHT22;9050;48.746;9.232;2023-02-22T07:21:19;9.30;99.90
17849;DHT22;9050;48.746;9.232;2023-02-22T07:23:50;10.30;99.90
17849;DHT22;9050;48.746;9.232;2023-02-22T07:26:17;10.70;99.90
17849;DHT22;9050;48.746;9.232;2023-02-22T07:28:44;11.20;99.90
17849;DHT22;9050;48.746;9.232;2023-02-22T07:31:13;11.70;99.90
17849;DHT22;9050;48.746;9.232;2023-02-22T07:33:40;12.10;99.90
17849;DHT22;9050;48.746;9.232;2023-02-22T07:36:08;12.40;99.90
17849;DHT22;9050;48.746;9.232;2023-02-22T07:38:35;12.90;99.90
17849;DHT22;9050;48.746;9.232;2023-02-22T07:41:01;13.50;99.90
17849;DHT22;9050;48.746;9.232;2023-02-22T07:43:28;14.00;99.90
17849;DHT22;9050;48.746;9.232;2023-02-22T07:45:57;13.60;99.90
17849;DHT22;9050;48.746;9.232;2023-02-22T07:48:30;12.60;99.90
17849;DHT22;9050;48.746;9.232;2023-02-22T07:50:57;11.20;99.90
17849;DHT22;9050;48.746;9.232;2023-02-22T07:53:25;10.10;99.90
17849;DHT22;9050;48.746;9.232;2023-02-22T07:55:55;9.50;99.90
17849;DHT22;9050;48.746;9.232;2023-02-22T07:58:23;9.30;99.90
17849;DHT22;9050;48.746;9.232;2023-02-22T08:00:51;9.00;99.90
17849;DHT22;9050;48.746;9.232;2023-02-22T08:03:19;8.70;99.90
17849;DHT22;9050;48.746;9.232;2023-02-22T08:05:49;8.40;99.90
17849;DHT22;9050;48.746;9.232;2023-02-22T08:08:16;8.40;99.90
17849;DHT22;9050;48.746;9.232;2023-02-22T08:10:44;8.40;99.90
17849;DHT22;9050;48.746;9.232;2023-02-22T08:13:11;8.90;99.90
17849;DHT22;9050;48.746;9.232;2023-02-22T08:15:39;8.80;99.90
17849;DHT22;9050;48.746;9.232;2023-02-22T08:18:08;8.60;99.90
17849;DHT22;9050;48.746;9.232;2023-02-22T08:20:36;8.90;99.90
17849;DHT22;9050;48.746;9.232;2023-02-22T08:23:05;9.40;99.90
17849;DHT22;9050;48.746;9.232;2023-02-22T08:25:33;9.40;99.90
17849;DHT22;9050;48.746;9.232;2023-02-22T08:28:01;9.80;99.90
17849;DHT22;9050;48.746;9.232;2023-02-22T08:30:30;10.00;99.90
17849;DHT22;9050;48.746;9.232;2023-02-22T08:32:57;10.10;99.90
17849;DHT22;9050;48.746;9.232;2023-02-22T08:35:26;10.10;99.90
17849;DHT22;9050;48.746;9.232;2023-02-22T08:37:56;10.00;99.90
17849;DHT22;9050;48.746;9.232;2023-02-22T08:40:26;9.90;99.90
17849;DHT22;9050;48.746;9.232;2023-02-22T08:42:55;9.90;99.90
17849;DHT22;9050;48.746;9.232;2023-02-22T08:45:23;10.00;99.90
17849;DHT22;9050;48.746;9.232;2023-02-22T08:47:49;10.10;99.90
17849;DHT22;9050;48.746;9.232;2023-02-22T08:50:19;10.10;99.90
17849;DHT22;9050;48.746;9.232;2023-02-22T08:52:49;10.30;99.90
17849;DHT22;9050;48.746;9.232;2023-02-22T08:55:18;10.40;99.90
17849;DHT22;9050;48.746;9.232;2023-02-22T08:57:46;10.40;99.90
17849;DHT22;9050;48.746;9.232;2023-02-22T09:00:14;10.40;99.90
17849;DHT22;9050;48.746;9.232;2023-02-22T09:02:41;10.10;99.90
17849;DHT22;9050;48.746;9.232;2023-02-22T09:05:08;10.00;99.90
17849;DHT22;9050;48.746;9.232;2023-02-22T09:07:35;10.00;99.90
17849;DHT22;9050;48.746;9.232;2023-02-22T09:10:03;9.80;99.90
17849;DHT22;9050;48.746;9.232;2023-02-22T09:12:30;9.90;99.90
17849;DHT22;9050;48.746;9.232;2023-02-22T09:14:59;9.80;99.90
17849;DHT22;9050;48.746;9.232;2023-02-22T09:17:25;9.90;99.90
17849;DHT22;9050;48.746;9.232;2023-02-22T09:19:52;10.00;99.90
17849;DHT22;9050;48.746;9.232;2023-02-22T09:22:20;10.20;99.90
17849;DHT22;9050;48.746;9.232;2023-02-22T09:24:46;10.40;99.90
17849;DHT22;9050;48.746;9.232;2023-02-22T09:27:15;10.80;99.90
17849;DHT22;9050;48.746;9.232;2023-02-22T09:29:47;11.00;99.90
17849;DHT22;9050;48.746;9.232;2023-02-22T09:32:15;10.80;99.90
17849;DHT22;9050;48.746;9.232;2023-02-22T09:34:43;10.30;99.90
17849;DHT22;9050;48.746;9.232;2023-02-22T09:37:10;10.10;99.90
17849;DHT22;9050;48.746;9.232;2023-02-22T09:39:37;9.90;99.90
17849;DHT22;9050;48.746;9.232;2023-02-22T09:42:10;10.20;99.90
17849;DHT22;9050;48.746;9.232;2023-02-22T09:44:43;10.10;99.90
17849;DHT22;9050;48.746;9.232;2023-02-22T09:47:16;10.10;99.90
17849;DHT22;9050;48.746;9.232;2023-02-22T09:49:55;10.20;99.90
17849;DHT22;9050;48.746;9.232;2023-02-22T09:52:26;10.20;99.90
17849;DHT22;9050;48.746;9.232;2023-02-22T09:55:03;10.30;99.90
17849;DHT22;9050;48.746;9.232;2023-02-22T09:57:33;10.10;99.90
17849;DHT22;9050;48.746;9.232;2023-02-22T10:00:04;10.30;99.90
17849;DHT22;9050;48.746;9.232;2023-02-22T10:02:45;10.50;99.90
17849;DHT22;9050;48.746;9.232;2023-02-22T10:05:18;10.60;99.90
17849;DHT22;9050;48.746;9.232;2023-02-22T10:07:51;11.00;99.90
17849;DHT22;9050;48.746;9.232;2023-02-22T10:10:22;11.10;99.90
17849;DHT22;9050;48.746;9.232;2023-02-22T10:12:55;10.90;99.90
17849;DHT22;9050;48.746;9.232;2023-02-22T10:15:38;11.10;99.90
17849;DHT22;9050;48.746;9.232;2023-02-22T10:18:32;11.10;99.90
17849;DHT22;9050;48.746;9.232;2023-02-22T10:21:03;11.20;99.90
17849;DHT22;9050;48.746;9.232;2023-02-22T10:23:37;11.40;99.90
17849;DHT22;9050;48.746;9.232;2023-02-22T10:26:14;11.40;99.90
17849;DHT22;9050;48.746;9.232;2023-02-22T10:28:49;11.50;99.90
17849;DHT22;9050;48.746;9.232;2023-02-22T10:31:22;11.60;99.90
17849;DHT22;9050;48.746;9.232;2023-02-22T10:33:56;12.00;99.90
17849;DHT22;9050;48.746;9.232;2023-02-22T10:36:24;11.90;99.90
17849;DHT22;9050;48.746;9.232;2023-02-22T10:38:54;12.20;99.90
17849;DHT22;9050;48.746;9.232;2023-02-22T10:41:28;12.30;99.90
17849;DHT22;9050;48.746;9.232;2023-02-22T10:43:55;12.50;99.90
17849;DHT22;9050;48.746;9.232;2023-02-22T10:46:24;12.40;99.90
17849;DHT22;9050;48.746;9.232;2023-02-22T10:48:59;12.40;99.90
17849;DHT22;9050;48.746;9.232;2023-02-22T10:51:27;12.40;99.90
17849;DHT22;9050;48.746;9.232;2023-02-22T10:53:58;12.60;99.90
17849;DHT22;9050;48.746;9.232;2023-02-22T10:56:33;12.50;99.90
17849;DHT22;9050;48.746;9.232;2023-02-22T10:59:02;12.60;99.90
17849;DHT22;9050;48.746;9.232;2023-02-22T11:01:35;12.60;99.90
17849;DHT22;9050;48.746;9.232;2023-02-22T11:04:09;12.60;99.90
17849;DHT22;9050;48.746;9.232;2023-02-22T11:06:37;12.60;99.90
17849;DHT22;9050;48.746;9.232;2023-02-22T11:09:10;12.70;99.90
17849;DHT22;9050;48.746;9.232;2023-02-22T11:11:39;12.80;99.90
17849;DHT22;9050;48.746;9.232;2023-02-22T11:14:08;13.00;99.90
17849;DHT22;9050;48.746;9.232;2023-02-22T11:16:37;12.80;99.90
17849;DHT22;9050;48.746;9.232;2023-02-22T11:19:15;12.80;99.90
17849;DHT22;9050;48.746;9.232;2023-02-22T11:21:45;12.50;99.90
17849;DHT22;9050;48.746;9.232;2023-02-22T11:24:14;12.70;99.90
17849;DHT22;9050;48.746;9.232;2023-02-22T11:26:43;12.60;99.90
17849;DHT22;9050;48.746;9.232;2023-02-22T11:29:19;12.70;99.90
17849;DHT22;9050;48.746;9.232;2023-02-22T11:31:46;12.90;99.90
17849;DHT22;9050;48.746;9.232;2023-02-22T11:34:32;12.70;99.90
17849;DHT22;9050;48.746;9.232;2023-02-22T11:37:18;12.70;99.90
17849;DHT22;9050;48.746;9.232;2023-02-22T11:39:47;12.90;99.90
17849;DHT22;9050;48.746;9.232;2023-02-22T11:42:24;13.00;99.90
17849;DHT22;9050;48.746;9.232;2023-02-22T11:45:10;12.80;99.90
17849;DHT22;9050;48.746;9.232;2023-02-22T11:47:50;13.00;99.90
17849;DHT22;9050;48.746;9.232;2023-02-22T11:50:26;13.20;99.90
17849;DHT22;9050;48.746;9.232;2023-02-22T11:55:52;13.70;99.90
17849;DHT22;9050;48.746;9.232;2023-02-22T11:58:32;13.50;99.90
17849;DHT22;9050;48.746;9.232;2023-02-22T12:01:04;13.30;99.90
17849;DHT22;9050;48.746;9.232;2023-02-22T12:04:06;13.20;99.90
17849;DHT22;9050;48.746;9.232;2023-02-22T12:06:45;13.20;99.90
17849;DHT22;9050;48.746;9.232;2023-02-22T12:09:21;13.00;99.90
17849;DHT22;9050;48.746;9.232;2023-02-22T12:12:00;13.00;99.90
17849;DHT22;9050;48.746;9.232;2023-02-22T12:14:36;13.00;99.90
17849;DHT22;9050;48.746;9.232;2023-02-22T12:17:13;12.80;99.90
17849;DHT22;9050;48.746;9.232;2023-02-22T12:19:47;12.80;99.90
17849;DHT22;9050;48.746;9.232;2023-02-22T12:22:20;13.00;99.90
17849;DHT22;9050;48.746;9.232;2023-02-22T12:24:51;12.90;99.90
17849;DHT22;9050;48.746;9.232;2023-02-22T12:27:24;12.60;99.90
17849;DHT22;9050;48.746;9.232;2023-02-22T12:29:57;12.90;99.90
17849;DHT22;9050;48.746;9.232;2023-02-22T12:32:33;13.00;99.90
17849;DHT22;9050;48.746;9.232;2023-02-22T12:35:10;12.80;99.90
17849;DHT22;9050;48.746;9.232;2023-02-22T12:37:50;12.70;99.90
17849;DHT22;9050;48.746;9.232;2023-02-22T12:40:22;12.90;99.90
17849;DHT22;9050;48.746;9.232;2023-02-22T12:42:55;13.10;99.90
17849;DHT22;9050;48.746;9.232;2023-02-22T12:45:29;13.10;99.90
17849;DHT22;9050;48.746;9.232;2023-02-22T12:48:08;13.10;99.90
17849;DHT22;9050;48.746;9.232;2023-02-22T12:50:43;13.00;99.90
17849;DHT22;9050;48.746;9.232;2023-02-22T12:53:19;13.20;99.90
17849;DHT22;9050;48.746;9.232;2023-02-22T12:55:50;13.20;99.90
17849;DHT22;9050;48.746;9.232;2023-02-22T12:58:20;13.20;99.90
17849;DHT22;9050;48.746;9.232;2023-02-22T13:00:56;13.30;99.90
17849;DHT22;9050;48.746;9.232;2023-02-22T13:03:30;13.50;99.90
17849;DHT22;9050;48.746;9.232;2023-02-22T13:06:14;13.40;99.90
17849;DHT22;9050;48.746;9.232;2023-02-22T13:08:54;13.20;99.90
17849;DHT22;9050;48.746;9.232;2023-02-22T13:11:26;13.20;99.90
17849;DHT22;9050;48.746;9.232;2023-02-22T13:14:07;13.20;99.90
17849;DHT22;9050;48.746;9.232;2023-02-22T13:16:41;13.10;99.90
17849;DHT22;9050;48.746;9.232;2023-02-22T13:19:25;13.30;99.90
17849;DHT22;9050;48.746;9.232;2023-02-22T13:22:00;13.70;99.90
17849;DHT22;9050;48.746;9.232;2023-02-22T13:24:35;13.60;99.90
17849;DHT22;9050;48.746;9.232;2023-02-22T13:27:09;14.00;99.90
17849;DHT22;9050;48.746;9.232;2023-02-22T13:29:41;14.00;99.90
17849;DHT22;9050;48.746;9.232;2023-02-22T13:32:27;14.10;99.90
17849;DHT22;9050;48.746;9.232;2023-02-22T13:35:15;14.20;99.90
17849;DHT22;9050;48.746;9.232;2023-02-22T13:40:51;14.40;99.90
17849;DHT22;9050;48.746;9.232;2023-02-22T13:43:36;14.30;99.90
17849;DHT22;9050;48.746;9.232;2023-02-22T13:46:30;14.00;99.90
17849;DHT22;9050;48.746;9.232;2023-02-22T13:49:24;13.90;99.90
17849;DHT22;9050;48.746;9.232;2023-02-22T13:51:56;13.80;99.90
17849;DHT22;9050;48.746;9.232;2023-02-22T13:54:26;13.70;99.90
17849;DHT22;9050;48.746;9.232;2023-02-22T13:56:57;13.50;99.90
17849;DHT22;9050;48.746;9.232;2023-02-22T13:59:27;13.30;99.90
17849;DHT22;9050;48.746;9.232;2023-02-22T14:01:55;13.30;99.90
17849;DHT22;9050;48.746;9.232;2023-02-22T14:04:39;13.20;99.90
17849;DHT22;9050;48.746;9.232;2023-02-22T14:10:46;13.10;99.90
17849;DHT22;9050;48.746;9.232;2023-02-22T14:13:16;13.10;99.90
17849;DHT22;9050;48.746;9.232;2023-02-22T14:16:21;13.10;99.90
17849;DHT22;9050;48.746;9.232;2023-02-22T14:18:49;13.00;99.90
17849;DHT22;9050;48.746;9.232;2023-02-22T14:21:25;13.00;99.90
17849;DHT22;9050;48.746;9.232;2023-02-22T14:23:54;13.00;99.90
17849;DHT22;9050;48.746;9.232;2023-02-22T14:26:26;13.00;99.90
17849;DHT22;9050;48.746;9.232;2023-02-22T14:28:57;13.10;99.90
17849;DHT22;9050;48.746;9.232;2023-02-22T14:31:26;13.10;99.90
17849;DHT22;9050;48.746;9.232;2023-02-22T14:34:01;13.20;99.90
17849;DHT22;9050;48.746;9.232;2023-02-22T14:36:39;13.20;99.90
17849;DHT22;9050;48.746;9.232;2023-02-22T14:39:17;13.20;99.90
17849;DHT22;9050;48.746;9.232;2023-02-22T14:41:50;13.20;99.90
17849;DHT22;9050;48.746;9.232;2023-02-22T14:44:25;13.30;99.90
17849;DHT22;9050;48.746;9.232;2023-02-22T14:46:55;13.40;99.90
17849;DHT22;9050;48.746;9.232;2023-02-22T14:49:30;13.40;99.90
17849;DHT22;9050;48.746;9.232;2023-02-22T14:52:01;13.30;99.90
17849;DHT22;9050;48.746;9.232;2023-02-22T14:54:34;13.30;99.90
17849;DHT22;9050;48.746;9.232;2023-02-22T14:57:10;13.20;99.90
17849;DHT22;9050;48.746;9.232;2023-02-22T14:59:51;13.30;99.90
17849;DHT22;9050;48.746;9.232;2023-02-22T15:02:21;13.20;99.90
17849;DHT22;9050;48.746;9.232;2023-02-22T15:04:51;13.20;99.90
17849;DHT22;9050;48.746;9.232;2023-02-22T15:07:22;13.20;99.90
17849;DHT22;9050;48.746;9.232;2023-02-22T15:10:03;13.20;99.90
17849;DHT22;9050;48.746;9.232;2023-02-22T15:12:31;13.10;99.90
17849;DHT22;9050;48.746;9.232;2023-02-22T15:15:17;13.10;99.90
17849;DHT22;9050;48.746;9.232;2023-02-22T15:17:47;13.10;99.90
17849;DHT22;9050;48.746;9.232;2023-02-22T15:20:15;13.20;99.90
17849;DHT22;9050;48.746;9.232;2023-02-22T15:22:45;13.20;99.90
17849;DHT22;9050;48.746;9.232;2023-02-22T15:25:13;13.20;99.90
17849;DHT22;9050;48.746;9.232;2023-02-22T15:27:44;13.20;99.90
17849;DHT22;9050;48.746;9.232;2023-02-22T15:30:20;13.30;99.90
17849;DHT22;9050;48.746;9.232;2023-02-22T15:32:47;13.20;99.90
17849;DHT22;9050;48.746;9.232;2023-02-22T15:35:17;13.20;99.90
17849;DHT22;9050;48.746;9.232;2023-02-22T15:37:45;13.00;99.90
17849;DHT22;9050;48.746;9.232;2023-02-22T15:40:15;13.00;99.90
17849;DHT22;9050;48.746;9.232;2023-02-22T15:42:45;12.90;99.90
17849;DHT22;9050;48.746;9.232;2023-02-22T15:45:22;12.90;99.90
17849;DHT22;9050;48.746;9.232;2023-02-22T15:47:51;12.70;99.90
17849;DHT22;9050;48.746;9.232;2023-02-22T15:50:22;12.70;99.90
17849;DHT22;9050;48.746;9.232;2023-02-22T15:52:54;12.60;99.90
17849;DHT22;9050;48.746;9.232;2023-02-22T15:55:25;12.70;99.90
17849;DHT22;9050;48.746;9.232;2023-02-22T15:57:53;12.60;99.90
17849;DHT22;9050;48.746;9.232;2023-02-22T16:00:24;12.60;99.90
17849;DHT22;9050;48.746;9.232;2023-02-22T16:02:56;12.50;99.90
17849;DHT22;9050;48.746;9.232;2023-02-22T16:05:31;12.40;99.90
17849;DHT22;9050;48.746;9.232;2023-02-22T16:08:00;12.40;99.90
17849;DHT22;9050;48.746;9.232;2023-02-22T16:10:29;12.40;99.90
17849;DHT22;9050;48.746;9.232;2023-02-22T16:13:06;12.40;99.90
17849;DHT22;9050;48.746;9.232;2023-02-22T16:15:35;12.40;99.90
17849;DHT22;9050;48.746;9.232;2023-02-22T16:18:24;12.30;99.90
17849;DHT22;9050;48.746;9.232;2023-02-22T16:20:59;12.20;99.90
17849;DHT22;9050;48.746;9.232;2023-02-22T16:23:28;12.20;99.90
17849;DHT22;9050;48.746;9.232;2023-02-22T16:26:06;12.20;99.90
17849;DHT22;9050;48.746;9.232;2023-02-22T16:28:35;12.10;99.90
17849;DHT22;9050;48.746;9.232;2023-02-22T16:31:18;12.10;99.90